sensor_id;sensor_type;location;lat;lon;timestamp;P1;durP1;ratioP1;P2;durP2;ratioP2
22549;SDS011;11441;57.164;-2.120;2023-03-01T00:01:41;6.50;;;0.77;;
22549;SDS011;11441;57.164;-2.120;2023-03-01T00:04:08;3.20;;;0.67;;
22549;SDS011;11441;57.164;-2.120;2023-03-01T00:06:35;1.93;;;0.60;;
22549;SDS011;11441;57.164;-2.120;2023-03-01T00:09:02;1.40;;;0.63;;
22549;SDS011;11441;57.164;-2.120;2023-03-01T00:11:48;1.97;;;0.57;;
22549;SDS011;11441;57.164;-2.120;2023-03-01T00:14:16;4.90;;;0.87;;
22549;SDS011;11441;57.164;-2.120;2023-03-01T00:16:44;1.33;;;0.60;;
22549;SDS011;11441;57.164;-2.120;2023-03-01T00:19:13;1.80;;;0.53;;
22549;SDS011;11441;57.164;-2.120;2023-03-01T00:21:42;4.17;;;0.70;;
22549;SDS011;11441;57.164;-2.120;2023-03-01T00:24:09;1.33;;;0.50;;
22549;SDS011;11441;57.164;-2.120;2023-03-01T00:26:36;3.73;;;0.90;;
22549;SDS011;11441;57.164;-2.120;2023-03-01T00:29:03;4.10;;;0.73;;
22549;SDS011;11441;57.164;-2.120;2023-03-01T00:31:31;2.73;;;0.50;;
22549;SDS011;11441;57.164;-2.120;2023-03-01T00:34:00;2.97;;;0.80;;
22549;SDS011;11441;57.164;-2.120;2023-03-01T00:36:30;2.07;;;0.53;;
22549;SDS011;11441;57.164;-2.120;2023-03-01T00:38:58;2.03;;;0.40;;
22549;SDS011;11441;57.164;-2.120;2023-03-01T00:41:25;3.17;;;0.70;;
22549;SDS011;11441;57.164;-2.120;2023-03-01T00:43:55;3.10;;;0.50;;
22549;SDS011;11441;57.164;-2.120;2023-03-01T00:46:23;2.20;;;0.40;;
22549;SDS011;11441;57.164;-2.120;2023-03-01T00:48:52;1.13;;;0.50;;
22549;SDS011;11441;57.164;-2.120;2023-03-01T00:51:24;6.20;;;0.83;;
22549;SDS011;11441;57.164;-2.120;2023-03-01T00:53:55;3.50;;;0.60;;
22549;SDS011;11441;57.164;-2.120;2023-03-01T00:56:42;2.13;;;0.50;;
22549;SDS011;11441;57.164;-2.120;2023-03-01T00:59:09;5.47;;;0.63;;
22549;SDS011;11441;57.164;-2.120;2023-03-01T01:01:38;5.00;;;0.70;;
22549;SDS011;11441;57.164;-2.120;2023-03-01T01:04:06;3.30;;;0.50;;
22549;SDS011;11441;57.164;-2.120;2023-03-01T01:06:40;3.80;;;0.40;;
22549;SDS011;11441;57.164;-2.120;2023-03-01T01:09:10;1.50;;;0.50;;
22549;SDS011;11441;57.164;-2.120;2023-03-01T01:11:46;2.90;;;0.83;;
22549;SDS011;11441;57.164;-2.120;2023-03-01T01:14:15;3.33;;;0.60;;
22549;SDS011;11441;57.164;-2.120;2023-03-01T01:17:00;1.73;;;0.90;;
22549;SDS011;11441;57.164;-2.120;2023-03-01T01:19:27;3.23;;;0.40;;
22549;SDS011;11441;57.164;-2.120;2023-03-01T01:21:54;0.97;;;0.20;;
22549;SDS011;11441;57.164;-2.120;2023-03-01T01:24:21;8.90;;;0.77;;
22549;SDS011;11441;57.164;-2.120;2023-03-01T01:27:05;2.53;;;0.63;;
22549;SDS011;11441;57.164;-2.120;2023-03-01T01:29:33;2.60;;;0.50;;
22549;SDS011;11441;57.164;-2.120;2023-03-01T01:32:00;5.13;;;0.50;;
22549;SDS011;11441;57.164;-2.120;2023-03-01T01:34:27;2.03;;;0.33;;
22549;SDS011;11441;57.164;-2.120;2023-03-01T01:36:53;1.10;;;0.40;;
22549;SDS011;11441;57.164;-2.120;2023-03-01T01:39:21;0.63;;;0.40;;
22549;SDS011;11441;57.164;-2.120;2023-03-01T01:41:48;2.53;;;0.40;;
22549;SDS011;11441;57.164;-2.120;2023-03-01T01:47:03;0.97;;;0.30;;
22549;SDS011;11441;57.164;-2.120;2023-03-01T01:49:46;0.93;;;0.50;;
22549;SDS011;11441;57.164;-2.120;2023-03-01T01:52:18;2.27;;;0.50;;
22549;SDS011;11441;57.164;-2.120;2023-03-01T01:54:50;1.17;;;0.30;;
22549;SDS011;11441;57.164;-2.120;2023-03-01T02:00:12;2.43;;;0.60;;
22549;SDS011;11441;57.164;-2.120;2023-03-01T02:02:42;1.37;;;0.40;;
22549;SDS011;11441;57.164;-2.120;2023-03-01T02:07:48;0.60;;;0.30;;
22549;SDS011;11441;57.164;-2.120;2023-03-01T02:10:19;1.47;;;0.30;;
22549;SDS011;11441;57.164;-2.120;2023-03-01T02:12:47;2.00;;;0.30;;
22549;SDS011;11441;57.164;-2.120;2023-03-01T02:15:32;0.30;;;0.30;;
22549;SDS011;11441;57.164;-2.120;2023-03-01T02:18:01;0.30;;;0.20;;
22549;SDS011;11441;57.164;-2.120;2023-03-01T02:23:31;0.57;;;0.20;;
22549;SDS011;11441;57.164;-2.120;2023-03-01T02:26:11;1.23;;;0.20;;
22549;SDS011;11441;57.164;-2.120;2023-03-01T02:28:40;0.20;;;0.20;;
22549;SDS011;11441;57.164;-2.120;2023-03-01T02:31:10;0.73;;;0.20;;
22549;SDS011;11441;57.164;-2.120;2023-03-01T02:33:59;1.30;;;0.30;;
22549;SDS011;11441;57.164;-2.120;2023-03-01T02:36:35;0.30;;;0.30;;
22549;SDS011;11441;57.164;-2.120;2023-03-01T02:39:17;0.20;;;0.20;;
22549;SDS011;11441;57.164;-2.120;2023-03-01T02:41:50;2.20;;;0.30;;
22549;SDS011;11441;57.164;-2.120;2023-03-01T02:44:20;0.73;;;0.30;;
22549;SDS011;11441;57.164;-2.120;2023-03-01T02:46:50;2.00;;;0.63;;
22549;SDS011;11441;57.164;-2.120;2023-03-01T02:49:28;0.97;;;0.50;;
22549;SDS011;11441;57.164;-2.120;2023-03-01T02:55:12;1.17;;;0.23;;
22549;SDS011;11441;57.164;-2.120;2023-03-01T02:57:43;0.53;;;0.30;;
22549;SDS011;11441;57.164;-2.120;2023-03-01T03:00:13;4.97;;;0.40;;
22549;SDS011;11441;57.164;-2.120;2023-03-01T03:02:47;0.30;;;0.30;;
22549;SDS011;11441;57.164;-2.120;2023-03-01T03:05:22;8.27;;;1.80;;
22549;SDS011;11441;57.164;-2.120;2023-03-01T03:07:55;2.17;;;0.50;;
22549;SDS011;11441;57.164;-2.120;2023-03-01T03:10:24;0.77;;;0.40;;
22549;SDS011;11441;57.164;-2.120;2023-03-01T03:12:56;1.07;;;0.50;;
22549;SDS011;11441;57.164;-2.120;2023-03-01T03:15:29;1.57;;;0.50;;
22549;SDS011;11441;57.164;-2.120;2023-03-01T03:17:57;2.70;;;0.50;;
22549;SDS011;11441;57.164;-2.120;2023-03-01T03:20:25;0.40;;;0.40;;
22549;SDS011;11441;57.164;-2.120;2023-03-01T03:22:55;0.80;;;0.57;;
22549;SDS011;11441;57.164;-2.120;2023-03-01T03:25:25;0.70;;;0.50;;
22549;SDS011;11441;57.164;-2.120;2023-03-01T03:27:54;1.07;;;0.50;;
22549;SDS011;11441;57.164;-2.120;2023-03-01T03:30:26;0.63;;;0.43;;
22549;SDS011;11441;57.164;-2.120;2023-03-01T03:32:57;0.60;;;0.60;;
22549;SDS011;11441;57.164;-2.120;2023-03-01T03:35:26;3.47;;;0.90;;
22549;SDS011;11441;57.164;-2.120;2023-03-01T03:37:58;2.47;;;0.50;;
22549;SDS011;11441;57.164;-2.120;2023-03-01T03:40:33;0.73;;;0.30;;
22549;SDS011;11441;57.164;-2.120;2023-03-01T03:43:05;1.77;;;0.47;;
22549;SDS011;11441;57.164;-2.120;2023-03-01T03:45:34;1.50;;;0.50;;
22549;SDS011;11441;57.164;-2.120;2023-03-01T03:48:03;0.47;;;0.30;;
22549;SDS011;11441;57.164;-2.120;2023-03-01T03:50:31;3.63;;;1.17;;
22549;SDS011;11441;57.164;-2.120;2023-03-01T03:53:02;1.03;;;0.50;;
22549;SDS011;11441;57.164;-2.120;2023-03-01T03:55:32;1.13;;;0.43;;
22549;SDS011;11441;57.164;-2.120;2023-03-01T03:58:18;0.43;;;0.37;;
22549;SDS011;11441;57.164;-2.120;2023-03-01T04:00:48;0.80;;;0.40;;
22549;SDS011;11441;57.164;-2.120;2023-03-01T04:03:19;1.40;;;0.47;;
22549;SDS011;11441;57.164;-2.120;2023-03-01T04:05:46;1.17;;;0.40;;
22549;SDS011;11441;57.164;-2.120;2023-03-01T04:08:14;1.93;;;0.40;;
22549;SDS011;11441;57.164;-2.120;2023-03-01T04:10:42;3.43;;;0.50;;
22549;SDS011;11441;57.164;-2.120;2023-03-01T04:13:11;0.20;;;0.20;;
22549;SDS011;11441;57.164;-2.120;2023-03-01T04:15:40;0.97;;;0.40;;
22549;SDS011;11441;57.164;-2.120;2023-03-01T04:18:11;0.83;;;0.40;;
22549;SDS011;11441;57.164;-2.120;2023-03-01T04:20:40;3.90;;;0.73;;
22549;SDS011;11441;57.164;-2.120;2023-03-01T04:23:08;0.53;;;0.53;;
22549;SDS011;11441;57.164;-2.120;2023-03-01T04:25:38;2.00;;;0.30;;
22549;SDS011;11441;57.164;-2.120;2023-03-01T04:28:32;1.87;;;0.80;;
22549;SDS011;11441;57.164;-2.120;2023-03-01T04:31:05;1.00;;;0.40;;
22549;SDS011;11441;57.164;-2.120;2023-03-01T04:33:41;3.53;;;0.50;;
22549;SDS011;11441;57.164;-2.120;2023-03-01T04:36:12;1.50;;;0.40;;
22549;SDS011;11441;57.164;-2.120;2023-03-01T04:38:40;0.57;;;0.33;;
22549;SDS011;11441;57.164;-2.120;2023-03-01T04:41:10;0.80;;;0.30;;
22549;SDS011;11441;57.164;-2.120;2023-03-01T04:43:37;2.37;;;0.30;;
22549;SDS011;11441;57.164;-2.120;2023-03-01T04:46:05;0.50;;;0.50;;
22549;SDS011;11441;57.164;-2.120;2023-03-01T04:48:36;0.50;;;0.30;;
22549;SDS011;11441;57.164;-2.120;2023-03-01T04:51:04;1.57;;;0.40;;
22549;SDS011;11441;57.164;-2.120;2023-03-01T04:53:50;1.13;;;0.50;;
22549;SDS011;11441;57.164;-2.120;2023-03-01T04:56:17;3.00;;;0.43;;
22549;SDS011;11441;57.164;-2.120;2023-03-01T04:58:49;1.33;;;0.47;;
22549;SDS011;11441;57.164;-2.120;2023-03-01T05:01:17;1.50;;;0.57;;
22549;SDS011;11441;57.164;-2.120;2023-03-01T05:03:50;0.83;;;0.40;;
22549;SDS011;11441;57.164;-2.120;2023-03-01T05:06:18;0.50;;;0.40;;
22549;SDS011;11441;57.164;-2.120;2023-03-01T05:08:46;2.23;;;0.30;;
22549;SDS011;11441;57.164;-2.120;2023-03-01T05:11:12;3.40;;;0.50;;
22549;SDS011;11441;57.164;-2.120;2023-03-01T05:13:39;1.40;;;0.30;;
22549;SDS011;11441;57.164;-2.120;2023-03-01T05:16:07;0.57;;;0.33;;
22549;SDS011;11441;57.164;-2.120;2023-03-01T05:18:56;2.33;;;0.60;;
22549;SDS011;11441;57.164;-2.120;2023-03-01T05:21:24;0.77;;;0.50;;
22549;SDS011;11441;57.164;-2.120;2023-03-01T05:23:52;2.93;;;0.20;;
22549;SDS011;11441;57.164;-2.120;2023-03-01T05:26:19;1.20;;;0.40;;
22549;SDS011;11441;57.164;-2.120;2023-03-01T05:28:53;2.53;;;0.60;;
22549;SDS011;11441;57.164;-2.120;2023-03-01T05:31:25;2.40;;;0.30;;
22549;SDS011;11441;57.164;-2.120;2023-03-01T05:33:52;0.70;;;0.30;;
22549;SDS011;11441;57.164;-2.120;2023-03-01T05:36:19;1.30;;;0.40;;
22549;SDS011;11441;57.164;-2.120;2023-03-01T05:39:03;2.90;;;0.40;;
22549;SDS011;11441;57.164;-2.120;2023-03-01T05:41:31;0.83;;;0.30;;
22549;SDS011;11441;57.164;-2.120;2023-03-01T05:43:57;3.50;;;0.50;;
22549;SDS011;11441;57.164;-2.120;2023-03-01T05:46:24;3.13;;;0.40;;
22549;SDS011;11441;57.164;-2.120;2023-03-01T05:48:51;0.50;;;0.40;;
22549;SDS011;11441;57.164;-2.120;2023-03-01T05:51:18;1.93;;;0.50;;
22549;SDS011;11441;57.164;-2.120;2023-03-01T05:53:44;2.73;;;1.13;;
22549;SDS011;11441;57.164;-2.120;2023-03-01T05:56:11;1.40;;;0.50;;
22549;SDS011;11441;57.164;-2.120;2023-03-01T05:58:38;1.10;;;0.97;;
22549;SDS011;11441;57.164;-2.120;2023-03-01T06:01:05;4.53;;;0.70;;
22549;SDS011;11441;57.164;-2.120;2023-03-01T06:03:31;0.67;;;0.50;;
22549;SDS011;11441;57.164;-2.120;2023-03-01T06:05:58;0.83;;;0.50;;
22549;SDS011;11441;57.164;-2.120;2023-03-01T06:08:25;0.57;;;0.43;;
22549;SDS011;11441;57.164;-2.120;2023-03-01T06:10:53;2.70;;;0.47;;
22549;SDS011;11441;57.164;-2.120;2023-03-01T06:13:20;2.10;;;0.83;;
22549;SDS011;11441;57.164;-2.120;2023-03-01T06:15:47;3.30;;;0.47;;
22549;SDS011;11441;57.164;-2.120;2023-03-01T06:18:14;6.67;;;0.70;;
22549;SDS011;11441;57.164;-2.120;2023-03-01T06:20:41;2.23;;;0.63;;
22549;SDS011;11441;57.164;-2.120;2023-03-01T06:25:53;2.53;;;0.80;;
22549;SDS011;11441;57.164;-2.120;2023-03-01T06:28:20;1.23;;;0.63;;
22549;SDS011;11441;57.164;-2.120;2023-03-01T06:31:05;1.63;;;0.60;;
22549;SDS011;11441;57.164;-2.120;2023-03-01T06:33:35;3.00;;;0.63;;
22549;SDS011;11441;57.164;-2.120;2023-03-01T06:36:02;3.00;;;0.97;;
22549;SDS011;11441;57.164;-2.120;2023-03-01T06:38:29;0.83;;;0.47;;
22549;SDS011;11441;57.164;-2.120;2023-03-01T06:41:13;0.43;;;0.30;;
22549;SDS011;11441;57.164;-2.120;2023-03-01T06:43:40;2.60;;;0.40;;
22549;SDS011;11441;57.164;-2.120;2023-03-01T06:46:07;2.03;;;0.57;;
22549;SDS011;11441;57.164;-2.120;2023-03-01T06:48:34;2.20;;;0.30;;
22549;SDS011;11441;57.164;-2.120;2023-03-01T06:51:00;0.47;;;0.30;;
22549;SDS011;11441;57.164;-2.120;2023-03-01T06:53:28;3.50;;;0.40;;
22549;SDS011;11441;57.164;-2.120;2023-03-01T06:55:56;2.00;;;1.10;;
22549;SDS011;11441;57.164;-2.120;2023-03-01T06:58:23;1.27;;;0.80;;
22549;SDS011;11441;57.164;-2.120;2023-03-01T07:00:50;2.27;;;0.70;;
22549;SDS011;11441;57.164;-2.120;2023-03-01T07:03:17;3.83;;;1.90;;
22549;SDS011;11441;57.164;-2.120;2023-03-01T07:06:02;1.33;;;0.87;;
22549;SDS011;11441;57.164;-2.120;2023-03-01T07:08:29;2.30;;;0.60;;
22549;SDS011;11441;57.164;-2.120;2023-03-01T07:10:56;4.63;;;1.53;;
22549;SDS011;11441;57.164;-2.120;2023-03-01T07:13:24;2.57;;;0.60;;
22549;SDS011;11441;57.164;-2.120;2023-03-01T07:15:51;3.93;;;1.43;;
22549;SDS011;11441;57.164;-2.120;2023-03-01T07:18:18;4.97;;;1.93;;
22549;SDS011;11441;57.164;-2.120;2023-03-01T07:20:44;11.03;;;1.67;;
22549;SDS011;11441;57.164;-2.120;2023-03-01T07:23:11;4.10;;;1.80;;
22549;SDS011;11441;57.164;-2.120;2023-03-01T07:25:38;1.63;;;0.53;;
22549;SDS011;11441;57.164;-2.120;2023-03-01T07:28:05;1.33;;;0.80;;
22549;SDS011;11441;57.164;-2.120;2023-03-01T07:30:31;0.40;;;0.40;;
22549;SDS011;11441;57.164;-2.120;2023-03-01T07:32:58;0.40;;;0.40;;
22549;SDS011;11441;57.164;-2.120;2023-03-01T07:35:26;1.23;;;0.67;;
22549;SDS011;11441;57.164;-2.120;2023-03-01T07:37:53;2.23;;;0.57;;
22549;SDS011;11441;57.164;-2.120;2023-03-01T07:40:20;1.23;;;0.50;;
22549;SDS011;11441;57.164;-2.120;2023-03-01T07:42:47;1.83;;;0.70;;
22549;SDS011;11441;57.164;-2.120;2023-03-01T07:45:13;1.30;;;0.30;;
22549;SDS011;11441;57.164;-2.120;2023-03-01T07:47:40;1.70;;;0.30;;
22549;SDS011;11441;57.164;-2.120;2023-03-01T07:50:07;1.40;;;0.57;;
22549;SDS011;11441;57.164;-2.120;2023-03-01T07:52:34;1.37;;;0.50;;
22549;SDS011;11441;57.164;-2.120;2023-03-01T07:55:02;1.40;;;0.40;;
22549;SDS011;11441;57.164;-2.120;2023-03-01T07:57:29;1.63;;;0.30;;
22549;SDS011;11441;57.164;-2.120;2023-03-01T07:59:56;1.57;;;0.23;;
22549;SDS011;11441;57.164;-2.120;2023-03-01T08:02:23;4.97;;;0.47;;
22549;SDS011;11441;57.164;-2.120;2023-03-01T08:04:50;0.73;;;0.30;;
22549;SDS011;11441;57.164;-2.120;2023-03-01T08:07:16;0.37;;;0.37;;
22549;SDS011;11441;57.164;-2.120;2023-03-01T08:09:43;2.20;;;0.20;;
22549;SDS011;11441;57.164;-2.120;2023-03-01T08:12:10;0.70;;;0.43;;
22549;SDS011;11441;57.164;-2.120;2023-03-01T08:14:37;5.23;;;0.57;;
22549;SDS011;11441;57.164;-2.120;2023-03-01T08:17:04;1.43;;;0.30;;
22549;SDS011;11441;57.164;-2.120;2023-03-01T08:19:30;0.87;;;0.37;;
22549;SDS011;11441;57.164;-2.120;2023-03-01T08:21:57;1.57;;;0.23;;
22549;SDS011;11441;57.164;-2.120;2023-03-01T08:24:24;3.17;;;0.50;;
22549;SDS011;11441;57.164;-2.120;2023-03-01T08:26:51;1.23;;;0.43;;
22549;SDS011;11441;57.164;-2.120;2023-03-01T08:29:18;3.57;;;0.60;;
22549;SDS011;11441;57.164;-2.120;2023-03-01T08:31:46;2.23;;;0.80;;
22549;SDS011;11441;57.164;-2.120;2023-03-01T08:34:30;2.30;;;0.70;;
22549;SDS011;11441;57.164;-2.120;2023-03-01T08:36:57;3.13;;;1.10;;
22549;SDS011;11441;57.164;-2.120;2023-03-01T08:39:24;1.90;;;0.90;;
22549;SDS011;11441;57.164;-2.120;2023-03-01T08:41:51;2.80;;;1.67;;
22549;SDS011;11441;57.164;-2.120;2023-03-01T08:44:18;6.20;;;1.80;;
22549;SDS011;11441;57.164;-2.120;2023-03-01T08:46:47;3.60;;;1.67;;
22549;SDS011;11441;57.164;-2.120;2023-03-01T08:49:17;2.10;;;0.73;;
22549;SDS011;11441;57.164;-2.120;2023-03-01T08:51:45;4.03;;;0.67;;
22549;SDS011;11441;57.164;-2.120;2023-03-01T08:54:14;2.10;;;0.70;;
22549;SDS011;11441;57.164;-2.120;2023-03-01T08:56:45;2.47;;;0.60;;
22549;SDS011;11441;57.164;-2.120;2023-03-01T08:59:13;0.70;;;0.33;;
22549;SDS011;11441;57.164;-2.120;2023-03-01T09:01:41;3.27;;;0.40;;
22549;SDS011;11441;57.164;-2.120;2023-03-01T09:04:11;2.83;;;0.50;;
22549;SDS011;11441;57.164;-2.120;2023-03-01T09:06:39;1.50;;;0.43;;
22549;SDS011;11441;57.164;-2.120;2023-03-01T09:09:06;3.60;;;0.50;;
22549;SDS011;11441;57.164;-2.120;2023-03-01T09:11:38;3.27;;;0.50;;
22549;SDS011;11441;57.164;-2.120;2023-03-01T09:14:05;3.07;;;0.40;;
22549;SDS011;11441;57.164;-2.120;2023-03-01T09:16:51;1.23;;;0.90;;
22549;SDS011;11441;57.164;-2.120;2023-03-01T09:19:17;2.53;;;0.90;;
22549;SDS011;11441;57.164;-2.120;2023-03-01T09:21:44;1.07;;;0.80;;
22549;SDS011;11441;57.164;-2.120;2023-03-01T09:24:19;2.97;;;0.97;;
22549;SDS011;11441;57.164;-2.120;2023-03-01T09:26:48;3.93;;;0.70;;
22549;SDS011;11441;57.164;-2.120;2023-03-01T09:29:16;1.33;;;0.50;;
22549;SDS011;11441;57.164;-2.120;2023-03-01T09:31:43;1.30;;;0.60;;
22549;SDS011;11441;57.164;-2.120;2023-03-01T09:34:10;0.83;;;0.20;;
22549;SDS011;11441;57.164;-2.120;2023-03-01T09:36:37;2.60;;;0.40;;
22549;SDS011;11441;57.164;-2.120;2023-03-01T09:39:04;1.17;;;0.37;;
22549;SDS011;11441;57.164;-2.120;2023-03-01T09:44:43;5.67;;;1.23;;
22549;SDS011;11441;57.164;-2.120;2023-03-01T09:47:35;1.43;;;0.53;;
22549;SDS011;11441;57.164;-2.120;2023-03-01T09:50:04;2.87;;;1.10;;
22549;SDS011;11441;57.164;-2.120;2023-03-01T09:52:41;2.43;;;1.00;;
22549;SDS011;11441;57.164;-2.120;2023-03-01T09:55:16;3.57;;;1.60;;
22549;SDS011;11441;57.164;-2.120;2023-03-01T09:57:55;8.70;;;1.20;;
22549;SDS011;11441;57.164;-2.120;2023-03-01T10:00:42;1.60;;;0.40;;
22549;SDS011;11441;57.164;-2.120;2023-03-01T10:06:12;2.53;;;0.50;;
22549;SDS011;11441;57.164;-2.120;2023-03-01T10:09:01;1.57;;;0.57;;
22549;SDS011;11441;57.164;-2.120;2023-03-01T10:11:41;1.87;;;0.50;;
22549;SDS011;11441;57.164;-2.120;2023-03-01T10:19:58;1.43;;;0.60;;
22549;SDS011;11441;57.164;-2.120;2023-03-01T10:22:40;3.90;;;0.70;;
22549;SDS011;11441;57.164;-2.120;2023-03-01T10:25:12;2.50;;;0.63;;
22549;SDS011;11441;57.164;-2.120;2023-03-01T10:28:05;10.23;;;3.73;;
22549;SDS011;11441;57.164;-2.120;2023-03-01T10:30:56;3.43;;;1.53;;
22549;SDS011;11441;57.164;-2.120;2023-03-01T10:41:21;15.63;;;5.00;;
22549;SDS011;11441;57.164;-2.120;2023-03-01T10:43:50;5.40;;;2.13;;
22549;SDS011;11441;57.164;-2.120;2023-03-01T10:46:24;6.83;;;1.97;;
22549;SDS011;11441;57.164;-2.120;2023-03-01T10:51:48;7.87;;;3.93;;
22549;SDS011;11441;57.164;-2.120;2023-03-01T10:56:58;16.77;;;7.30;;
22549;SDS011;11441;57.164;-2.120;2023-03-01T10:59:29;7.87;;;3.87;;
22549;SDS011;11441;57.164;-2.120;2023-03-01T11:02:22;6.43;;;4.00;;
22549;SDS011;11441;57.164;-2.120;2023-03-01T11:07:29;2.37;;;1.60;;
22549;SDS011;11441;57.164;-2.120;2023-03-01T11:09:56;3.47;;;1.27;;
22549;SDS011;11441;57.164;-2.120;2023-03-01T11:12:23;3.07;;;1.30;;
22549;SDS011;11441;57.164;-2.120;2023-03-01T11:14:51;3.17;;;1.00;;
22549;SDS011;11441;57.164;-2.120;2023-03-01T11:17:23;1.80;;;0.77;;
22549;SDS011;11441;57.164;-2.120;2023-03-01T11:20:41;2.30;;;0.80;;
22549;SDS011;11441;57.164;-2.120;2023-03-01T11:23:27;4.37;;;1.27;;
22549;SDS011;11441;57.164;-2.120;2023-03-01T11:25:56;3.27;;;0.47;;
22549;SDS011;11441;57.164;-2.120;2023-03-01T11:28:29;1.20;;;0.47;;
22549;SDS011;11441;57.164;-2.120;2023-03-01T11:36:31;1.93;;;0.60;;
22549;SDS011;11441;57.164;-2.120;2023-03-01T11:39:04;4.53;;;0.97;;
22549;SDS011;11441;57.164;-2.120;2023-03-01T11:41:48;2.63;;;0.40;;
22549;SDS011;11441;57.164;-2.120;2023-03-01T11:44:29;0.93;;;0.57;;
22549;SDS011;11441;57.164;-2.120;2023-03-01T11:50:08;1.67;;;0.50;;
22549;SDS011;11441;57.164;-2.120;2023-03-01T11:52:48;2.80;;;0.70;;
22549;SDS011;11441;57.164;-2.120;2023-03-01T12:04:16;1.40;;;0.80;;
22549;SDS011;11441;57.164;-2.120;2023-03-01T12:09:47;4.70;;;0.77;;
22549;SDS011;11441;57.164;-2.120;2023-03-01T12:20:47;2.30;;;0.97;;
22549;SDS011;11441;57.164;-2.120;2023-03-01T12:26:13;2.90;;;0.70;;
22549;SDS011;11441;57.164;-2.120;2023-03-01T12:29:20;1.63;;;0.80;;
22549;SDS011;11441;57.164;-2.120;2023-03-01T12:35:19;1.57;;;0.30;;
22549;SDS011;11441;57.164;-2.120;2023-03-01T12:49:34;4.47;;;0.83;;
22549;SDS011;11441;57.164;-2.120;2023-03-01T12:52:10;1.10;;;0.63;;
22549;SDS011;11441;57.164;-2.120;2023-03-01T12:54:42;3.97;;;1.03;;
22549;SDS011;11441;57.164;-2.120;2023-03-01T12:57:14;6.57;;;1.50;;
22549;SDS011;11441;57.164;-2.120;2023-03-01T13:00:06;1.53;;;0.70;;
22549;SDS011;11441;57.164;-2.120;2023-03-01T13:03:06;2.03;;;0.80;;
22549;SDS011;11441;57.164;-2.120;2023-03-01T13:11:17;3.03;;;0.82;;
22549;SDS011;11441;57.164;-2.120;2023-03-01T13:13:47;4.07;;;1.00;;
22549;SDS011;11441;57.164;-2.120;2023-03-01T13:19:12;2.25;;;0.75;;
22549;SDS011;11441;57.164;-2.120;2023-03-01T13:21:42;4.53;;;1.05;;
22549;SDS011;11441;57.164;-2.120;2023-03-01T13:29:53;3.40;;;0.93;;
22549;SDS011;11441;57.164;-2.120;2023-03-01T13:32:40;8.67;;;1.23;;
22549;SDS011;11441;57.164;-2.120;2023-03-01T13:37:37;1.70;;;0.77;;
22549;SDS011;11441;57.164;-2.120;2023-03-01T13:40:07;4.30;;;1.70;;
22549;SDS011;11441;57.164;-2.120;2023-03-01T13:42:52;5.57;;;1.10;;
22549;SDS011;11441;57.164;-2.120;2023-03-01T13:45:38;5.50;;;0.95;;
22549;SDS011;11441;57.164;-2.120;2023-03-01T13:48:22;2.13;;;0.47;;
22549;SDS011;11441;57.164;-2.120;2023-03-01T13:50:53;4.20;;;1.10;;
22549;SDS011;11441;57.164;-2.120;2023-03-01T13:53:25;2.38;;;0.95;;
22549;SDS011;11441;57.164;-2.120;2023-03-01T13:55:57;3.30;;;1.00;;
22549;SDS011;11441;57.164;-2.120;2023-03-01T13:58:29;3.93;;;1.10;;
22549;SDS011;11441;57.164;-2.120;2023-03-01T14:00:58;4.30;;;1.02;;
22549;SDS011;11441;57.164;-2.120;2023-03-01T14:03:31;2.92;;;0.98;;
22549;SDS011;11441;57.164;-2.120;2023-03-01T14:06:02;5.95;;;1.25;;
22549;SDS011;11441;57.164;-2.120;2023-03-01T14:08:41;6.95;;;0.70;;
22549;SDS011;11441;57.164;-2.120;2023-03-01T14:13:45;8.90;;;1.23;;
22549;SDS011;11441;57.164;-2.120;2023-03-01T14:16:45;2.00;;;0.57;;
22549;SDS011;11441;57.164;-2.120;2023-03-01T14:19:39;6.25;;;1.77;;
22549;SDS011;11441;57.164;-2.120;2023-03-01T14:22:32;7.10;;;1.08;;
22549;SDS011;11441;57.164;-2.120;2023-03-01T14:25:17;4.47;;;1.03;;
22549;SDS011;11441;57.164;-2.120;2023-03-01T14:28:33;5.47;;;1.83;;
22549;SDS011;11441;57.164;-2.120;2023-03-01T14:30:44;9.07;;;1.50;;
22549;SDS011;11441;57.164;-2.120;2023-03-01T14:33:24;4.27;;;1.27;;
22549;SDS011;11441;57.164;-2.120;2023-03-01T14:35:56;5.70;;;1.20;;
22549;SDS011;11441;57.164;-2.120;2023-03-01T14:41:07;4.37;;;1.47;;
22549;SDS011;11441;57.164;-2.120;2023-03-01T14:43:46;5.73;;;1.50;;
22549;SDS011;11441;57.164;-2.120;2023-03-01T14:46:39;11.90;;;2.07;;
22549;SDS011;11441;57.164;-2.120;2023-03-01T14:49:09;7.53;;;2.57;;
22549;SDS011;11441;57.164;-2.120;2023-03-01T14:51:40;5.82;;;1.92;;
22549;SDS011;11441;57.164;-2.120;2023-03-01T14:54:20;4.47;;;1.33;;
22549;SDS011;11441;57.164;-2.120;2023-03-01T14:56:51;6.73;;;1.90;;
22549;SDS011;11441;57.164;-2.120;2023-03-01T14:59:23;6.50;;;2.67;;
22549;SDS011;11441;57.164;-2.120;2023-03-01T15:01:51;8.87;;;3.83;;
22549;SDS011;11441;57.164;-2.120;2023-03-01T15:04:22;15.68;;;4.25;;
22549;SDS011;11441;57.164;-2.120;2023-03-01T15:07:09;15.13;;;6.10;;
22549;SDS011;11441;57.164;-2.120;2023-03-01T15:09:39;9.75;;;3.65;;
22549;SDS011;11441;57.164;-2.120;2023-03-01T15:15:18;5.13;;;1.50;;
22549;SDS011;11441;57.164;-2.120;2023-03-01T15:17:57;9.90;;;1.20;;
22549;SDS011;11441;57.164;-2.120;2023-03-01T15:20:30;10.25;;;1.55;;
22549;SDS011;11441;57.164;-2.120;2023-03-01T15:23:02;15.77;;;2.67;;
22549;SDS011;11441;57.164;-2.120;2023-03-01T15:25:30;6.38;;;1.40;;
22549;SDS011;11441;57.164;-2.120;2023-03-01T15:27:59;6.30;;;1.73;;
22549;SDS011;11441;57.164;-2.120;2023-03-01T15:35:49;4.72;;;1.23;;
22549;SDS011;11441;57.164;-2.120;2023-03-01T15:40:53;10.95;;;2.17;;
22549;SDS011;11441;57.164;-2.120;2023-03-01T15:43:46;5.10;;;1.20;;
22549;SDS011;11441;57.164;-2.120;2023-03-01T15:46:20;4.40;;;1.10;;
22549;SDS011;11441;57.164;-2.120;2023-03-01T15:48:52;7.05;;;0.65;;
22549;SDS011;11441;57.164;-2.120;2023-03-01T15:51:36;5.13;;;0.73;;
22549;SDS011;11441;57.164;-2.120;2023-03-01T15:57:12;5.23;;;0.63;;
22549;SDS011;11441;57.164;-2.120;2023-03-01T15:59:41;1.43;;;0.80;;
22549;SDS011;11441;57.164;-2.120;2023-03-01T16:02:10;5.68;;;1.42;;
22549;SDS011;11441;57.164;-2.120;2023-03-01T16:04:39;2.42;;;0.75;;
22549;SDS011;11441;57.164;-2.120;2023-03-01T16:07:06;5.65;;;1.35;;
22549;SDS011;11441;57.164;-2.120;2023-03-01T16:09:32;4.10;;;0.85;;
22549;SDS011;11441;57.164;-2.120;2023-03-01T16:11:59;4.00;;;1.23;;
22549;SDS011;11441;57.164;-2.120;2023-03-01T16:14:26;2.47;;;1.17;;
22549;SDS011;11441;57.164;-2.120;2023-03-01T16:16:53;2.55;;;0.65;;
22549;SDS011;11441;57.164;-2.120;2023-03-01T16:19:20;1.42;;;0.60;;
22549;SDS011;11441;57.164;-2.120;2023-03-01T16:21:47;2.13;;;0.70;;
22549;SDS011;11441;57.164;-2.120;2023-03-01T16:24:15;3.55;;;0.40;;
22549;SDS011;11441;57.164;-2.120;2023-03-01T16:26:43;3.60;;;1.40;;
22549;SDS011;11441;57.164;-2.120;2023-03-01T16:29:10;4.43;;;0.93;;
22549;SDS011;11441;57.164;-2.120;2023-03-01T16:31:37;2.07;;;0.60;;
22549;SDS011;11441;57.164;-2.120;2023-03-01T16:34:04;4.25;;;0.85;;
22549;SDS011;11441;57.164;-2.120;2023-03-01T16:36:31;2.70;;;0.50;;
22549;SDS011;11441;57.164;-2.120;2023-03-01T16:38:58;4.47;;;0.97;;
22549;SDS011;11441;57.164;-2.120;2023-03-01T16:41:27;2.93;;;1.17;;
22549;SDS011;11441;57.164;-2.120;2023-03-01T16:43:54;4.20;;;1.13;;
22549;SDS011;11441;57.164;-2.120;2023-03-01T16:46:24;5.23;;;1.37;;
22549;SDS011;11441;57.164;-2.120;2023-03-01T16:48:54;3.60;;;0.70;;
22549;SDS011;11441;57.164;-2.120;2023-03-01T16:51:22;5.93;;;1.20;;
22549;SDS011;11441;57.164;-2.120;2023-03-01T16:53:50;4.93;;;1.00;;
22549;SDS011;11441;57.164;-2.120;2023-03-01T16:56:17;4.97;;;1.27;;
22549;SDS011;11441;57.164;-2.120;2023-03-01T16:58:45;6.20;;;1.27;;
22549;SDS011;11441;57.164;-2.120;2023-03-01T17:01:13;10.17;;;1.57;;
22549;SDS011;11441;57.164;-2.120;2023-03-01T17:03:42;5.17;;;1.63;;
22549;SDS011;11441;57.164;-2.120;2023-03-01T17:06:11;7.63;;;1.20;;
22549;SDS011;11441;57.164;-2.120;2023-03-01T17:08:40;4.87;;;1.40;;